createdAt,value
2022-12-01T00:08:00.995Z,5.12
2022-12-01T00:18:02.371Z,5.05
2022-12-01T00:28:03.697Z,4.97
2022-12-01T00:38:04.987Z,4.90
2022-12-01T00:48:06.236Z,5.00
2022-12-01T00:58:07.661Z,4.82
2022-12-01T01:08:09.025Z,4.97
2022-12-01T01:18:10.374Z,4.80
2022-12-01T01:28:11.596Z,4.73
2022-12-01T01:38:13.021Z,4.68
2022-12-01T01:48:14.609Z,4.66
2022-12-01T01:58:15.855Z,4.72
2022-12-01T02:08:17.145Z,4.61
2022-12-01T02:18:18.480Z,4.59
2022-12-01T02:28:19.706Z,4.48
2022-12-01T02:38:20.963Z,4.51
2022-12-01T02:48:22.431Z,4.60
2022-12-01T02:58:23.695Z,4.43
2022-12-01T03:08:24.947Z,4.32
2022-12-01T03:18:26.225Z,4.41
2022-12-01T03:28:28.889Z,4.38
2022-12-01T03:38:30.414Z,4.28
2022-12-01T03:48:31.745Z,4.25
2022-12-01T03:58:34.255Z,4.16
2022-12-01T04:08:37.469Z,4.03
2022-12-01T04:18:38.698Z,4.06
2022-12-01T04:28:39.925Z,3.97
2022-12-01T04:38:41.173Z,3.97
2022-12-01T04:48:43.551Z,4.08
2022-12-01T04:58:44.919Z,3.90
2022-12-01T05:08:46.222Z,3.97
2022-12-01T05:18:47.552Z,3.85
2022-12-01T05:28:48.995Z,3.85
2022-12-01T05:38:50.277Z,3.81
2022-12-01T05:48:51.614Z,3.89
2022-12-01T05:58:52.858Z,3.96
2022-12-01T06:08:54.097Z,3.99
2022-12-01T06:18:55.467Z,3.91
2022-12-01T06:28:56.784Z,3.91
2022-12-01T06:38:58.011Z,3.94
2022-12-01T06:48:59.273Z,4.00
2022-12-01T06:59:00.586Z,4.13
2022-12-01T07:09:02.059Z,4.15
2022-12-01T07:19:03.758Z,4.14
2022-12-01T07:29:05.026Z,3.96
2022-12-01T07:39:06.521Z,4.04
2022-12-01T07:49:07.801Z,4.15
2022-12-01T07:59:09.458Z,4.17
2022-12-01T08:09:10.681Z,4.05
2022-12-01T08:19:11.980Z,4.11
2022-12-01T08:29:18.538Z,4.16
2022-12-01T08:39:21.304Z,4.16
2022-12-01T08:49:23.008Z,4.15
2022-12-01T08:59:24.333Z,4.19
2022-12-01T09:09:25.593Z,4.26
2022-12-01T09:19:28.527Z,4.30
2022-12-01T09:29:29.758Z,4.27
2022-12-01T09:39:31.021Z,4.19
2022-12-01T09:49:32.283Z,4.23
2022-12-01T09:59:33.538Z,4.22
2022-12-01T10:09:34.758Z,4.25
2022-12-01T10:19:36.052Z,4.36
2022-12-01T10:29:37.304Z,4.41
2022-12-01T10:39:38.622Z,4.45
2022-12-01T10:49:39.878Z,4.50
2022-12-01T10:59:41.151Z,4.43
2022-12-01T11:09:42.392Z,4.53
2022-12-01T11:19:43.769Z,4.59
2022-12-01T11:29:46.314Z,4.30
2022-12-01T11:39:48.516Z,4.48
2022-12-01T11:49:50.304Z,4.62
2022-12-01T11:59:52.390Z,4.58
2022-12-01T12:09:53.867Z,4.59
2022-12-01T12:20:11.052Z,4.54
2022-12-01T12:30:12.620Z,4.51
2022-12-01T12:40:13.909Z,4.63
2022-12-01T12:50:15.139Z,4.68
2022-12-01T13:00:16.538Z,4.78
2022-12-01T13:10:17.879Z,4.60
2022-12-01T13:20:19.233Z,4.73
2022-12-01T13:30:20.542Z,4.94
2022-12-01T13:40:21.827Z,4.58
2022-12-01T13:50:23.100Z,4.83
2022-12-01T14:00:24.575Z,4.51
2022-12-01T14:10:25.943Z,4.61
2022-12-01T14:20:27.628Z,4.51
2022-12-01T14:30:28.949Z,4.38
2022-12-01T14:40:30.372Z,4.46
2022-12-01T14:50:31.663Z,4.42
2022-12-01T15:00:32.971Z,4.42
2022-12-01T15:10:37.820Z,4.53
2022-12-01T15:20:42.426Z,4.52
2022-12-01T15:30:47.750Z,4.32
2022-12-01T15:51:10.404Z,4.36
2022-12-01T16:01:11.780Z,4.41
2022-12-01T16:11:13.579Z,4.28
2022-12-01T16:21:14.848Z,4.25
2022-12-01T16:31:16.207Z,4.31
2022-12-01T16:41:17.622Z,4.24
2022-12-01T16:51:29.309Z,4.22
2022-12-01T17:01:31.404Z,4.24
2022-12-01T17:11:32.712Z,4.19
2022-12-01T17:21:33.986Z,4.11
2022-12-01T17:31:35.370Z,4.13
2022-12-01T17:41:36.920Z,4.15
2022-12-01T17:51:38.531Z,4.10
2022-12-01T18:01:41.229Z,4.03
2022-12-01T18:11:42.625Z,4.05
2022-12-01T18:21:43.919Z,4.08
2022-12-01T18:31:45.782Z,4.11
2022-12-01T18:41:47.115Z,3.96
2022-12-01T18:51:48.515Z,4.04
2022-12-01T19:01:49.797Z,4.05
2022-12-01T19:11:59.642Z,3.99
2022-12-01T19:22:00.924Z,3.96
2022-12-01T19:32:02.190Z,3.91
2022-12-01T19:42:03.466Z,3.92
2022-12-01T19:52:06.333Z,3.95
2022-12-01T20:02:07.716Z,3.86
2022-12-01T20:22:46.838Z,3.84
2022-12-01T20:32:48.094Z,3.89
2022-12-01T20:42:49.353Z,3.91
2022-12-01T20:52:50.626Z,3.98
2022-12-01T21:02:52.036Z,3.89
2022-12-01T21:13:12.159Z,3.90
2022-12-01T21:23:13.485Z,3.90
2022-12-01T21:33:14.744Z,3.90
2022-12-01T21:43:16.016Z,3.91
2022-12-01T21:53:17.249Z,3.94
2022-12-01T22:03:18.594Z,3.88
2022-12-01T22:13:19.988Z,3.86
2022-12-01T22:23:21.234Z,3.83
2022-12-01T22:33:22.488Z,3.74
2022-12-01T22:43:23.802Z,3.74
2022-12-01T22:53:25.120Z,3.68
2022-12-01T23:03:26.394Z,3.69
2022-12-01T23:13:27.736Z,3.67
2022-12-01T23:23:29.089Z,3.66
2022-12-01T23:33:30.308Z,3.70
2022-12-01T23:43:31.519Z,3.66
2022-12-01T23:53:32.801Z,3.73
